sensor_id;sensor_type;location;lat;lon;timestamp;pressure;altitude;pressure_sealevel;temperature;humidity
7376;BME280;3728;42.266;24.944;2022-11-20T00:01:27;99016.38;;;17.03;100.00
7376;BME280;3728;42.266;24.944;2022-11-20T00:03:56;99014.59;;;17.11;100.00
7376;BME280;3728;42.266;24.944;2022-11-20T00:06:25;99018.03;;;17.12;100.00
7376;BME280;3728;42.266;24.944;2022-11-20T00:08:59;99022.13;;;17.09;100.00
7376;BME280;3728;42.266;24.944;2022-11-20T00:11:29;99013.72;;;17.03;100.00
7376;BME280;3728;42.266;24.944;2022-11-20T00:14:00;99020.66;;;17.12;100.00
7376;BME280;3728;42.266;24.944;2022-11-20T00:16:30;99014.81;;;17.25;100.00
7376;BME280;3728;42.266;24.944;2022-11-20T00:18:59;99024.72;;;17.28;100.00
7376;BME280;3728;42.266;24.944;2022-11-20T00:21:27;99035.19;;;17.21;100.00
7376;BME280;3728;42.266;24.944;2022-11-20T00:23:56;99033.91;;;17.12;100.00
7376;BME280;3728;42.266;24.944;2022-11-20T00:26:25;99032.75;;;17.13;100.00
7376;BME280;3728;42.266;24.944;2022-11-20T00:28:55;99037.06;;;17.21;100.00
7376;BME280;3728;42.266;24.944;2022-11-20T00:31:25;99024.09;;;17.12;100.00
7376;BME280;3728;42.266;24.944;2022-11-20T00:33:54;99008.91;;;17.09;100.00
7376;BME280;3728;42.266;24.944;2022-11-20T00:36:24;99013.38;;;17.05;100.00
7376;BME280;3728;42.266;24.944;2022-11-20T00:38:56;99025.13;;;17.07;100.00
7376;BME280;3728;42.266;24.944;2022-11-20T00:41:25;99019.72;;;17.23;100.00
7376;BME280;3728;42.266;24.944;2022-11-20T00:43:55;99022.00;;;17.25;100.00
7376;BME280;3728;42.266;24.944;2022-11-20T00:46:24;99015.72;;;17.10;100.00
7376;BME280;3728;42.266;24.944;2022-11-20T00:48:53;99008.16;;;17.08;100.00
7376;BME280;3728;42.266;24.944;2022-11-20T00:51:22;99007.44;;;17.12;100.00
7376;BME280;3728;42.266;24.944;2022-11-20T00:53:51;99028.00;;;17.48;100.00
7376;BME280;3728;42.266;24.944;2022-11-20T00:56:21;99022.75;;;17.25;100.00
7376;BME280;3728;42.266;24.944;2022-11-20T00:58:49;99018.25;;;17.26;100.00
7376;BME280;3728;42.266;24.944;2022-11-20T01:01:24;99023.75;;;17.17;100.00
7376;BME280;3728;42.266;24.944;2022-11-20T01:03:54;99010.09;;;17.12;100.00
7376;BME280;3728;42.266;24.944;2022-11-20T01:06:32;99011.19;;;17.10;100.00
7376;BME280;3728;42.266;24.944;2022-11-20T01:09:10;99017.28;;;17.15;100.00
7376;BME280;3728;42.266;24.944;2022-11-20T01:11:43;99024.81;;;17.13;100.00
7376;BME280;3728;42.266;24.944;2022-11-20T01:14:13;99020.91;;;17.03;100.00
7376;BME280;3728;42.266;24.944;2022-11-20T01:16:46;99015.50;;;16.96;100.00
7376;BME280;3728;42.266;24.944;2022-11-20T01:19:18;99007.22;;;16.97;100.00
7376;BME280;3728;42.266;24.944;2022-11-20T01:21:51;99012.00;;;17.15;100.00
7376;BME280;3728;42.266;24.944;2022-11-20T01:24:21;99005.97;;;17.14;100.00
7376;BME280;3728;42.266;24.944;2022-11-20T01:26:50;98990.84;;;17.15;100.00
7376;BME280;3728;42.266;24.944;2022-11-20T01:29:22;98992.53;;;17.26;100.00
7376;BME280;3728;42.266;24.944;2022-11-20T01:31:51;98993.63;;;17.22;100.00
7376;BME280;3728;42.266;24.944;2022-11-20T01:34:20;98996.28;;;17.25;100.00
7376;BME280;3728;42.266;24.944;2022-11-20T01:36:49;98979.75;;;17.05;100.00
7376;BME280;3728;42.266;24.944;2022-11-20T01:39:22;98976.00;;;17.06;100.00
7376;BME280;3728;42.266;24.944;2022-11-20T01:41:53;98975.59;;;17.04;100.00
7376;BME280;3728;42.266;24.944;2022-11-20T01:44:54;98971.09;;;17.08;100.00
7376;BME280;3728;42.266;24.944;2022-11-20T01:47:37;98977.88;;;17.06;100.00
7376;BME280;3728;42.266;24.944;2022-11-20T01:50:18;98963.06;;;17.01;100.00
7376;BME280;3728;42.266;24.944;2022-11-20T01:52:57;98963.13;;;17.05;100.00
7376;BME280;3728;42.266;24.944;2022-11-20T01:55:31;98959.91;;;16.92;100.00
7376;BME280;3728;42.266;24.944;2022-11-20T01:58:04;98957.94;;;16.89;100.00
7376;BME280;3728;42.266;24.944;2022-11-20T02:00:32;98951.25;;;16.95;100.00
7376;BME280;3728;42.266;24.944;2022-11-20T02:03:03;98947.66;;;17.33;100.00
7376;BME280;3728;42.266;24.944;2022-11-20T02:05:51;98943.72;;;17.24;100.00
7376;BME280;3728;42.266;24.944;2022-11-20T02:08:42;98939.16;;;17.21;100.00
7376;BME280;3728;42.266;24.944;2022-11-20T02:11:09;98942.44;;;17.40;100.00
7376;BME280;3728;42.266;24.944;2022-11-20T02:13:37;98943.38;;;17.25;100.00
7376;BME280;3728;42.266;24.944;2022-11-20T02:16:17;98948.19;;;17.20;100.00
7376;BME280;3728;42.266;24.944;2022-11-20T02:18:51;98939.41;;;17.12;100.00
7376;BME280;3728;42.266;24.944;2022-11-20T02:21:23;98937.78;;;17.04;100.00
7376;BME280;3728;42.266;24.944;2022-11-20T02:24:17;98945.88;;;16.88;100.00
7376;BME280;3728;42.266;24.944;2022-11-20T02:29:28;98943.44;;;16.80;100.00
7376;BME280;3728;42.266;24.944;2022-11-20T02:32:02;98938.78;;;16.70;100.00
7376;BME280;3728;42.266;24.944;2022-11-20T02:34:30;98941.81;;;16.72;100.00
7376;BME280;3728;42.266;24.944;2022-11-20T02:36:59;98938.88;;;16.77;100.00
7376;BME280;3728;42.266;24.944;2022-11-20T02:39:27;98939.34;;;16.82;100.00
7376;BME280;3728;42.266;24.944;2022-11-20T02:41:56;98941.28;;;16.85;100.00
7376;BME280;3728;42.266;24.944;2022-11-20T02:44:23;98927.53;;;16.76;100.00
7376;BME280;3728;42.266;24.944;2022-11-20T02:46:51;98932.84;;;16.76;100.00
7376;BME280;3728;42.266;24.944;2022-11-20T02:49:19;98951.75;;;16.78;100.00
7376;BME280;3728;42.266;24.944;2022-11-20T02:51:47;98944.19;;;16.77;100.00
7376;BME280;3728;42.266;24.944;2022-11-20T02:54:14;98943.44;;;16.80;100.00
7376;BME280;3728;42.266;24.944;2022-11-20T02:56:42;98939.19;;;16.72;100.00
7376;BME280;3728;42.266;24.944;2022-11-20T02:59:10;98945.66;;;16.74;100.00
7376;BME280;3728;42.266;24.944;2022-11-20T03:01:37;98946.75;;;16.73;100.00
7376;BME280;3728;42.266;24.944;2022-11-20T03:04:05;98952.97;;;16.84;100.00
7376;BME280;3728;42.266;24.944;2022-11-20T03:06:33;98958.25;;;16.84;100.00
7376;BME280;3728;42.266;24.944;2022-11-20T03:09:01;98952.81;;;16.74;100.00
7376;BME280;3728;42.266;24.944;2022-11-20T03:11:28;98928.13;;;16.66;100.00
7376;BME280;3728;42.266;24.944;2022-11-20T03:13:56;98947.84;;;16.72;100.00
7376;BME280;3728;42.266;24.944;2022-11-20T03:16:23;98932.84;;;16.76;100.00
7376;BME280;3728;42.266;24.944;2022-11-20T03:18:52;98928.50;;;16.65;100.00
7376;BME280;3728;42.266;24.944;2022-11-20T03:21:20;98937.88;;;16.62;100.00
7376;BME280;3728;42.266;24.944;2022-11-20T03:23:47;98945.53;;;16.67;100.00
7376;BME280;3728;42.266;24.944;2022-11-20T03:26:16;98938.28;;;16.64;100.00
7376;BME280;3728;42.266;24.944;2022-11-20T03:28:56;98934.00;;;16.56;100.00
7376;BME280;3728;42.266;24.944;2022-11-20T03:31:28;98927.06;;;16.48;100.00
7376;BME280;3728;42.266;24.944;2022-11-20T03:34:01;98919.41;;;16.43;100.00
7376;BME280;3728;42.266;24.944;2022-11-20T03:36:29;98917.41;;;16.56;100.00
7376;BME280;3728;42.266;24.944;2022-11-20T03:38:57;98917.06;;;16.61;100.00
7376;BME280;3728;42.266;24.944;2022-11-20T03:41:27;98918.50;;;16.55;100.00
7376;BME280;3728;42.266;24.944;2022-11-20T03:43:59;98926.91;;;16.60;100.00
7376;BME280;3728;42.266;24.944;2022-11-20T03:46:28;98920.84;;;16.60;100.00
7376;BME280;3728;42.266;24.944;2022-11-20T03:48:56;98919.28;;;16.55;100.00
7376;BME280;3728;42.266;24.944;2022-11-20T03:51:26;98922.59;;;16.52;100.00
7376;BME280;3728;42.266;24.944;2022-11-20T03:54:02;98923.38;;;16.53;100.00
7376;BME280;3728;42.266;24.944;2022-11-20T03:56:34;98923.28;;;16.49;100.00
7376;BME280;3728;42.266;24.944;2022-11-20T03:59:03;98929.44;;;16.53;100.00
7376;BME280;3728;42.266;24.944;2022-11-20T04:01:34;98934.97;;;16.48;100.00
7376;BME280;3728;42.266;24.944;2022-11-20T04:04:03;98923.72;;;16.51;100.00
7376;BME280;3728;42.266;24.944;2022-11-20T04:06:36;98927.97;;;16.56;100.00
7376;BME280;3728;42.266;24.944;2022-11-20T04:09:05;98934.50;;;16.42;100.00
7376;BME280;3728;42.266;24.944;2022-11-20T04:11:35;98936.97;;;16.32;100.00
7376;BME280;3728;42.266;24.944;2022-11-20T04:14:05;98936.22;;;16.31;100.00
7376;BME280;3728;42.266;24.944;2022-11-20T04:16:35;98933.31;;;16.40;100.00
7376;BME280;3728;42.266;24.944;2022-11-20T04:19:05;98935.19;;;16.39;100.00
7376;BME280;3728;42.266;24.944;2022-11-20T04:21:35;98942.56;;;16.50;100.00
7376;BME280;3728;42.266;24.944;2022-11-20T04:24:03;98942.50;;;16.46;100.00
7376;BME280;3728;42.266;24.944;2022-11-20T04:26:34;98949.59;;;16.42;100.00
7376;BME280;3728;42.266;24.944;2022-11-20T04:29:02;98939.31;;;16.37;100.00
7376;BME280;3728;42.266;24.944;2022-11-20T04:31:33;98941.25;;;16.40;100.00
7376;BME280;3728;42.266;24.944;2022-11-20T04:34:02;98937.63;;;16.48;100.00
7376;BME280;3728;42.266;24.944;2022-11-20T04:36:32;98944.28;;;16.61;100.00
7376;BME280;3728;42.266;24.944;2022-11-20T04:39:03;98949.44;;;16.54;100.00
7376;BME280;3728;42.266;24.944;2022-11-20T04:41:35;98941.13;;;16.52;100.00
7376;BME280;3728;42.266;24.944;2022-11-20T04:44:04;98935.69;;;16.45;100.00
7376;BME280;3728;42.266;24.944;2022-11-20T04:46:40;98935.84;;;16.52;100.00
7376;BME280;3728;42.266;24.944;2022-11-20T04:49:10;98946.03;;;16.54;100.00
7376;BME280;3728;42.266;24.944;2022-11-20T04:51:41;98936.66;;;16.56;100.00
7376;BME280;3728;42.266;24.944;2022-11-20T04:54:09;98938.19;;;16.57;100.00
7376;BME280;3728;42.266;24.944;2022-11-20T04:56:38;98944.25;;;16.58;100.00
7376;BME280;3728;42.266;24.944;2022-11-20T04:59:06;98933.84;;;16.49;100.00
7376;BME280;3728;42.266;24.944;2022-11-20T05:01:33;98933.59;;;16.54;100.00
7376;BME280;3728;42.266;24.944;2022-11-20T05:04:01;98935.84;;;16.52;100.00
7376;BME280;3728;42.266;24.944;2022-11-20T05:06:28;98926.78;;;16.53;100.00
7376;BME280;3728;42.266;24.944;2022-11-20T05:08:56;98912.72;;;16.49;100.00
7376;BME280;3728;42.266;24.944;2022-11-20T05:11:23;98924.34;;;16.44;100.00
7376;BME280;3728;42.266;24.944;2022-11-20T05:13:51;98934.03;;;16.37;100.00
7376;BME280;3728;42.266;24.944;2022-11-20T05:16:23;98923.81;;;16.35;100.00
7376;BME280;3728;42.266;24.944;2022-11-20T05:18:53;98930.28;;;16.38;100.00
7376;BME280;3728;42.266;24.944;2022-11-20T05:21:21;98925.09;;;16.22;100.00
7376;BME280;3728;42.266;24.944;2022-11-20T05:23:49;98923.44;;;16.37;100.00
7376;BME280;3728;42.266;24.944;2022-11-20T05:26:18;98932.88;;;16.34;100.00
7376;BME280;3728;42.266;24.944;2022-11-20T05:28:49;98937.59;;;16.25;100.00
7376;BME280;3728;42.266;24.944;2022-11-20T05:31:21;98938.06;;;16.31;100.00
7376;BME280;3728;42.266;24.944;2022-11-20T05:33:54;98939.63;;;16.32;100.00
7376;BME280;3728;42.266;24.944;2022-11-20T05:36:23;98934.94;;;16.25;100.00
7376;BME280;3728;42.266;24.944;2022-11-20T05:38:51;98939.00;;;16.19;100.00
7376;BME280;3728;42.266;24.944;2022-11-20T05:41:26;98933.38;;;16.21;100.00
7376;BME280;3728;42.266;24.944;2022-11-20T05:43:55;98930.59;;;16.14;100.00
7376;BME280;3728;42.266;24.944;2022-11-20T05:46:24;98941.56;;;16.16;100.00
7376;BME280;3728;42.266;24.944;2022-11-20T05:48:55;98940.06;;;16.15;100.00
7376;BME280;3728;42.266;24.944;2022-11-20T05:51:26;98939.63;;;16.32;100.00
7376;BME280;3728;42.266;24.944;2022-11-20T05:53:56;98942.47;;;16.23;100.00
7376;BME280;3728;42.266;24.944;2022-11-20T05:56:25;98939.25;;;16.11;100.00
7376;BME280;3728;42.266;24.944;2022-11-20T05:58:52;98951.31;;;16.12;100.00
7376;BME280;3728;42.266;24.944;2022-11-20T06:01:22;98944.16;;;16.12;100.00
7376;BME280;3728;42.266;24.944;2022-11-20T06:03:54;98949.94;;;16.18;100.00
7376;BME280;3728;42.266;24.944;2022-11-20T06:06:22;98952.34;;;16.26;100.00
7376;BME280;3728;42.266;24.944;2022-11-20T06:08:51;98948.94;;;16.26;100.00
7376;BME280;3728;42.266;24.944;2022-11-20T06:11:19;98952.50;;;16.14;100.00
7376;BME280;3728;42.266;24.944;2022-11-20T06:13:48;98965.84;;;16.21;100.00
7376;BME280;3728;42.266;24.944;2022-11-20T06:16:18;98977.63;;;16.27;100.00
7376;BME280;3728;42.266;24.944;2022-11-20T06:18:47;98963.88;;;16.18;100.00
7376;BME280;3728;42.266;24.944;2022-11-20T06:21:17;98968.63;;;16.09;100.00
7376;BME280;3728;42.266;24.944;2022-11-20T06:23:46;98973.28;;;16.16;100.00
7376;BME280;3728;42.266;24.944;2022-11-20T06:26:18;98977.88;;;16.19;100.00
7376;BME280;3728;42.266;24.944;2022-11-20T06:28:47;98976.34;;;16.18;100.00
7376;BME280;3728;42.266;24.944;2022-11-20T06:31:17;98985.50;;;16.24;100.00
7376;BME280;3728;42.266;24.944;2022-11-20T06:33:47;98984.88;;;16.30;100.00
7376;BME280;3728;42.266;24.944;2022-11-20T06:36:18;98975.19;;;16.38;100.00
7376;BME280;3728;42.266;24.944;2022-11-20T06:38:47;98978.94;;;16.37;100.00
7376;BME280;3728;42.266;24.944;2022-11-20T06:41:18;98997.16;;;16.42;100.00
7376;BME280;3728;42.266;24.944;2022-11-20T06:43:47;98985.69;;;16.54;100.00
7376;BME280;3728;42.266;24.944;2022-11-20T06:46:16;98999.22;;;16.71;100.00
7376;BME280;3728;42.266;24.944;2022-11-20T06:48:46;98996.59;;;16.71;100.00
7376;BME280;3728;42.266;24.944;2022-11-20T06:51:14;99000.31;;;16.70;100.00
7376;BME280;3728;42.266;24.944;2022-11-20T06:53:41;99005.28;;;16.94;100.00
7376;BME280;3728;42.266;24.944;2022-11-20T06:56:09;99004.97;;;16.99;100.00
7376;BME280;3728;42.266;24.944;2022-11-20T06:58:37;98999.44;;;17.08;100.00
7376;BME280;3728;42.266;24.944;2022-11-20T07:01:07;98994.66;;;17.17;100.00
7376;BME280;3728;42.266;24.944;2022-11-20T07:03:37;99002.56;;;17.40;100.00
7376;BME280;3728;42.266;24.944;2022-11-20T07:06:05;99004.53;;;17.46;100.00
7376;BME280;3728;42.266;24.944;2022-11-20T07:08:33;99004.59;;;17.50;100.00
7376;BME280;3728;42.266;24.944;2022-11-20T07:11:03;99007.31;;;17.83;100.00
7376;BME280;3728;42.266;24.944;2022-11-20T07:13:33;98991.16;;;17.92;100.00
7376;BME280;3728;42.266;24.944;2022-11-20T07:16:05;99007.19;;;18.02;100.00
7376;BME280;3728;42.266;24.944;2022-11-20T07:18:34;98993.59;;;18.04;100.00
7376;BME280;3728;42.266;24.944;2022-11-20T07:21:03;98992.41;;;18.01;100.00
7376;BME280;3728;42.266;24.944;2022-11-20T07:23:35;98993.59;;;18.04;100.00
7376;BME280;3728;42.266;24.944;2022-11-20T07:26:06;98997.72;;;18.01;100.00
7376;BME280;3728;42.266;24.944;2022-11-20T07:28:36;98996.63;;;18.06;100.00
7376;BME280;3728;42.266;24.944;2022-11-20T07:31:04;99000.94;;;18.17;100.00
7376;BME280;3728;42.266;24.944;2022-11-20T07:33:33;99002.88;;;18.20;100.00
7376;BME280;3728;42.266;24.944;2022-11-20T07:36:01;99012.88;;;18.37;100.00
7376;BME280;3728;42.266;24.944;2022-11-20T07:38:30;99015.91;;;18.36;100.00
7376;BME280;3728;42.266;24.944;2022-11-20T07:41:00;99026.38;;;18.25;100.00
7376;BME280;3728;42.266;24.944;2022-11-20T07:43:28;99023.78;;;18.29;100.00
7376;BME280;3728;42.266;24.944;2022-11-20T07:45:57;99012.78;;;18.27;100.00
7376;BME280;3728;42.266;24.944;2022-11-20T07:48:25;99017.38;;;18.33;100.00
7376;BME280;3728;42.266;24.944;2022-11-20T07:51:13;99016.66;;;18.36;100.00
7376;BME280;3728;42.266;24.944;2022-11-20T07:53:41;99022.16;;;18.54;100.00
7376;BME280;3728;42.266;24.944;2022-11-20T07:56:09;99017.59;;;18.51;100.00
7376;BME280;3728;42.266;24.944;2022-11-20T07:58:37;99009.38;;;18.63;100.00
7376;BME280;3728;42.266;24.944;2022-11-20T08:01:06;99018.53;;;18.69;100.00
7376;BME280;3728;42.266;24.944;2022-11-20T08:03:35;99012.38;;;18.62;100.00
7376;BME280;3728;42.266;24.944;2022-11-20T08:06:06;99004.66;;;18.86;100.00
7376;BME280;3728;42.266;24.944;2022-11-20T08:08:34;98996.16;;;18.67;100.00
7376;BME280;3728;42.266;24.944;2022-11-20T08:11:09;99010.91;;;18.68;100.00
7376;BME280;3728;42.266;24.944;2022-11-20T08:13:57;99011.94;;;18.53;100.00
7376;BME280;3728;42.266;24.944;2022-11-20T08:16:45;99007.22;;;18.39;100.00
7376;BME280;3728;42.266;24.944;2022-11-20T08:19:15;99009.97;;;18.46;100.00
7376;BME280;3728;42.266;24.944;2022-11-20T08:21:43;99018.66;;;18.47;100.00
7376;BME280;3728;42.266;24.944;2022-11-20T08:24:12;99014.91;;;18.48;100.00
7376;BME280;3728;42.266;24.944;2022-11-20T08:26:39;99010.75;;;18.50;100.00
7376;BME280;3728;42.266;24.944;2022-11-20T08:29:07;99014.66;;;18.60;100.00
7376;BME280;3728;42.266;24.944;2022-11-20T08:31:36;99017.75;;;18.69;100.00
7376;BME280;3728;42.266;24.944;2022-11-20T08:34:03;99010.66;;;18.80;100.00
7376;BME280;3728;42.266;24.944;2022-11-20T08:36:35;99002.47;;;18.95;100.00
7376;BME280;3728;42.266;24.944;2022-11-20T08:39:03;99008.69;;;19.17;100.00
7376;BME280;3728;42.266;24.944;2022-11-20T08:41:31;99012.47;;;19.16;100.00
7376;BME280;3728;42.266;24.944;2022-11-20T08:44:05;98999.25;;;19.23;100.00
7376;BME280;3728;42.266;24.944;2022-11-20T08:46:39;98996.56;;;19.20;100.00
7376;BME280;3728;42.266;24.944;2022-11-20T08:49:11;98999.19;;;19.16;100.00
7376;BME280;3728;42.266;24.944;2022-11-20T08:51:40;98994.63;;;19.13;100.00
7376;BME280;3728;42.266;24.944;2022-11-20T08:54:08;98996.59;;;19.23;100.00
7376;BME280;3728;42.266;24.944;2022-11-20T08:56:37;98983.69;;;19.22;100.00
7376;BME280;3728;42.266;24.944;2022-11-20T08:59:06;98993.94;;;19.23;100.00
7376;BME280;3728;42.266;24.944;2022-11-20T09:01:54;98996.25;;;19.28;100.00
7376;BME280;3728;42.266;24.944;2022-11-20T09:04:22;98988.28;;;19.28;100.00
7376;BME280;3728;42.266;24.944;2022-11-20T09:06:49;98975.47;;;19.37;100.00
7376;BME280;3728;42.266;24.944;2022-11-20T09:09:17;98969.44;;;19.40;100.00
7376;BME280;3728;42.266;24.944;2022-11-20T09:11:46;98967.66;;;19.69;100.00
7376;BME280;3728;42.266;24.944;2022-11-20T09:14:16;98967.81;;;20.11;97.52
7376;BME280;3728;42.266;24.944;2022-11-20T09:16:45;98957.25;;;20.36;96.22
7376;BME280;3728;42.266;24.944;2022-11-20T09:19:13;98969.44;;;20.51;95.96
7376;BME280;3728;42.266;24.944;2022-11-20T09:22:00;98960.31;;;21.01;93.40
7376;BME280;3728;42.266;24.944;2022-11-20T09:24:28;98961.66;;;21.87;89.94
7376;BME280;3728;42.266;24.944;2022-11-20T09:26:56;98955.91;;;22.58;83.75
7376;BME280;3728;42.266;24.944;2022-11-20T09:29:24;98950.25;;;22.96;79.49
7376;BME280;3728;42.266;24.944;2022-11-20T09:31:51;98961.00;;;23.30;78.30
7376;BME280;3728;42.266;24.944;2022-11-20T09:34:21;98959.69;;;23.79;74.37
7376;BME280;3728;42.266;24.944;2022-11-20T09:36:50;98950.13;;;23.81;74.27
7376;BME280;3728;42.266;24.944;2022-11-20T09:39:18;98942.53;;;23.76;72.69
7376;BME280;3728;42.266;24.944;2022-11-20T09:45:19;98931.81;;;23.46;74.28
7376;BME280;3728;42.266;24.944;2022-11-20T09:53:41;98918.72;;;22.84;77.00
7376;BME280;3728;42.266;24.944;2022-11-20T09:56:34;98917.31;;;22.73;76.41
7376;BME280;3728;42.266;24.944;2022-11-20T09:59:06;98925.97;;;22.84;75.43
7376;BME280;3728;42.266;24.944;2022-11-20T10:01:43;98917.16;;;22.87;75.67
7376;BME280;3728;42.266;24.944;2022-11-20T10:04:19;98916.13;;;22.74;75.31
7376;BME280;3728;42.266;24.944;2022-11-20T10:06:56;98915.06;;;22.68;74.08
7376;BME280;3728;42.266;24.944;2022-11-20T10:09:56;98911.31;;;22.55;75.05
7376;BME280;3728;42.266;24.944;2022-11-20T10:21:27;98904.19;;;23.23;71.16
7376;BME280;3728;42.266;24.944;2022-11-20T10:24:27;98904.97;;;23.23;70.62
7376;BME280;3728;42.266;24.944;2022-11-20T10:30:12;98900.09;;;23.14;72.42
7376;BME280;3728;42.266;24.944;2022-11-20T10:32:47;98897.72;;;23.20;71.92
7376;BME280;3728;42.266;24.944;2022-11-20T10:38:25;98891.50;;;23.34;70.49
7376;BME280;3728;42.266;24.944;2022-11-20T10:41:20;98887.44;;;23.22;71.66
7376;BME280;3728;42.266;24.944;2022-11-20T10:44:12;98880.75;;;23.41;68.80
7376;BME280;3728;42.266;24.944;2022-11-20T10:47:04;98868.75;;;23.52;63.46
7376;BME280;3728;42.266;24.944;2022-11-20T10:49:33;98883.72;;;24.30;59.10
7376;BME280;3728;42.266;24.944;2022-11-20T10:52:11;98875.00;;;24.49;58.81
7376;BME280;3728;42.266;24.944;2022-11-20T10:58:18;98863.69;;;23.88;61.80
7376;BME280;3728;42.266;24.944;2022-11-20T11:00:49;98853.69;;;23.65;59.72
7376;BME280;3728;42.266;24.944;2022-11-20T11:03:26;98860.47;;;23.43;63.87
7376;BME280;3728;42.266;24.944;2022-11-20T11:06:12;98851.34;;;23.41;65.82
7376;BME280;3728;42.266;24.944;2022-11-20T11:08:43;98846.16;;;23.27;63.77
7376;BME280;3728;42.266;24.944;2022-11-20T11:11:18;98855.41;;;23.19;64.48
7376;BME280;3728;42.266;24.944;2022-11-20T11:13:48;98844.00;;;23.14;65.58
7376;BME280;3728;42.266;24.944;2022-11-20T11:16:24;98840.75;;;23.30;64.97
7376;BME280;3728;42.266;24.944;2022-11-20T11:19:06;98841.09;;;23.32;66.40
7376;BME280;3728;42.266;24.944;2022-11-20T11:21:59;98836.97;;;23.28;67.25
7376;BME280;3728;42.266;24.944;2022-11-20T11:24:29;98833.94;;;23.26;66.21
7376;BME280;3728;42.266;24.944;2022-11-20T11:27:14;98821.75;;;23.25;66.99
7376;BME280;3728;42.266;24.944;2022-11-20T11:29:45;98821.69;;;22.94;68.81
7376;BME280;3728;42.266;24.944;2022-11-20T11:32:17;98817.28;;;23.14;67.81
7376;BME280;3728;42.266;24.944;2022-11-20T11:35:02;98813.25;;;23.30;67.17
7376;BME280;3728;42.266;24.944;2022-11-20T11:37:36;98812.69;;;23.15;68.34
7376;BME280;3728;42.266;24.944;2022-11-20T11:40:08;98808.00;;;23.23;67.21
7376;BME280;3728;42.266;24.944;2022-11-20T11:42:55;98807.22;;;22.92;69.98
7376;BME280;3728;42.266;24.944;2022-11-20T11:45:24;98815.56;;;23.31;69.10
7376;BME280;3728;42.266;24.944;2022-11-20T11:47:58;98816.22;;;23.69;66.98
7376;BME280;3728;42.266;24.944;2022-11-20T11:50:28;98817.94;;;23.83;65.93
7376;BME280;3728;42.266;24.944;2022-11-20T11:53:14;98821.63;;;23.35;67.92
7376;BME280;3728;42.266;24.944;2022-11-20T12:01:33;98808.41;;;22.91;71.11
7376;BME280;3728;42.266;24.944;2022-11-20T12:04:20;98813.75;;;23.21;70.50
7376;BME280;3728;42.266;24.944;2022-11-20T12:07:20;98821.34;;;23.26;69.38
7376;BME280;3728;42.266;24.944;2022-11-20T12:10:20;98815.53;;;23.01;71.75
7376;BME280;3728;42.266;24.944;2022-11-20T12:12:53;98814.50;;;22.91;73.08
7376;BME280;3728;42.266;24.944;2022-11-20T12:15:32;98806.34;;;23.05;72.74
7376;BME280;3728;42.266;24.944;2022-11-20T12:18:00;98806.19;;;22.82;73.02
7376;BME280;3728;42.266;24.944;2022-11-20T12:20:35;98808.56;;;22.77;72.78
7376;BME280;3728;42.266;24.944;2022-11-20T12:23:17;98804.00;;;22.74;72.81
7376;BME280;3728;42.266;24.944;2022-11-20T12:25:52;98801.09;;;22.58;73.13
7376;BME280;3728;42.266;24.944;2022-11-20T12:31:24;98794.19;;;22.19;75.17
7376;BME280;3728;42.266;24.944;2022-11-20T12:36:55;98802.00;;;21.96;76.02
7376;BME280;3728;42.266;24.944;2022-11-20T12:39:58;98800.16;;;21.90;76.99
7376;BME280;3728;42.266;24.944;2022-11-20T12:43:12;98780.00;;;21.85;78.17
7376;BME280;3728;42.266;24.944;2022-11-20T12:49:16;98771.91;;;21.96;78.99
7376;BME280;3728;42.266;24.944;2022-11-20T12:52:36;98778.44;;;21.91;79.18
7376;BME280;3728;42.266;24.944;2022-11-20T12:55:15;98777.38;;;21.78;78.26
7376;BME280;3728;42.266;24.944;2022-11-20T12:57:57;98777.25;;;21.96;77.59
7376;BME280;3728;42.266;24.944;2022-11-20T13:00:30;98769.66;;;21.94;78.28
7376;BME280;3728;42.266;24.944;2022-11-20T13:08:54;98792.19;;;21.79;80.27
7376;BME280;3728;42.266;24.944;2022-11-20T13:11:27;98792.66;;;21.67;81.10
7376;BME280;3728;42.266;24.944;2022-11-20T13:19:57;98785.88;;;21.59;80.56
7376;BME280;3728;42.266;24.944;2022-11-20T13:22:44;98791.25;;;21.48;81.42
7376;BME280;3728;42.266;24.944;2022-11-20T13:25:27;98796.22;;;21.46;81.15
7376;BME280;3728;42.266;24.944;2022-11-20T13:27:58;98792.81;;;21.39;81.15
7376;BME280;3728;42.266;24.944;2022-11-20T13:30:28;98792.03;;;21.42;81.63
7376;BME280;3728;42.266;24.944;2022-11-20T13:33:34;98793.69;;;21.83;79.02
7376;BME280;3728;42.266;24.944;2022-11-20T13:36:19;98792.44;;;22.02;77.78
7376;BME280;3728;42.266;24.944;2022-11-20T13:38:50;98790.16;;;22.01;77.88
7376;BME280;3728;42.266;24.944;2022-11-20T13:41:53;98796.13;;;21.60;80.99
7376;BME280;3728;42.266;24.944;2022-11-20T13:44:37;98810.38;;;21.29;84.66
7376;BME280;3728;42.266;24.944;2022-11-20T13:47:46;98824.16;;;21.06;87.24
7376;BME280;3728;42.266;24.944;2022-11-20T13:59:23;98878.22;;;20.79;93.53
7376;BME280;3728;42.266;24.944;2022-11-20T14:02:16;98882.03;;;20.60;96.50
7376;BME280;3728;42.266;24.944;2022-11-20T14:04:48;98883.94;;;20.45;100.00
7376;BME280;3728;42.266;24.944;2022-11-20T14:07:18;98878.56;;;20.21;100.00
7376;BME280;3728;42.266;24.944;2022-11-20T14:09:52;98872.09;;;20.01;100.00
7376;BME280;3728;42.266;24.944;2022-11-20T14:12:29;98881.63;;;20.16;100.00
7376;BME280;3728;42.266;24.944;2022-11-20T14:14:58;98891.03;;;19.89;100.00
7376;BME280;3728;42.266;24.944;2022-11-20T14:17:33;98898.28;;;20.02;100.00
7376;BME280;3728;42.266;24.944;2022-11-20T14:20:05;98903.94;;;19.79;99.74
7376;BME280;3728;42.266;24.944;2022-11-20T14:22:37;98903.63;;;20.06;89.13
7376;BME280;3728;42.266;24.944;2022-11-20T14:25:25;98911.97;;;19.97;90.92
7376;BME280;3728;42.266;24.944;2022-11-20T14:27:56;98892.97;;;19.92;88.98
7376;BME280;3728;42.266;24.944;2022-11-20T14:30:38;98890.91;;;19.46;89.45
7376;BME280;3728;42.266;24.944;2022-11-20T14:33:14;98880.16;;;19.25;89.77
7376;BME280;3728;42.266;24.944;2022-11-20T14:35:54;98864.56;;;19.13;89.99
7376;BME280;3728;42.266;24.944;2022-11-20T14:38:27;98856.53;;;18.99;93.01
7376;BME280;3728;42.266;24.944;2022-11-20T14:41:07;98854.47;;;18.75;93.68